sensor_id;sensor_type;location;lat;lon;timestamp;temperature;humidity
16513;DHT22;8369;48.030;11.598;2024-03-25T00:02:01;4.40;99.90
16513;DHT22;8369;48.030;11.598;2024-03-25T00:04:27;4.30;99.90
16513;DHT22;8369;48.030;11.598;2024-03-25T00:06:53;4.40;99.90
16513;DHT22;8369;48.030;11.598;2024-03-25T00:09:19;4.40;99.90
16513;DHT22;8369;48.030;11.598;2024-03-25T00:11:46;4.40;99.90
16513;DHT22;8369;48.030;11.598;2024-03-25T00:14:11;4.40;99.90
16513;DHT22;8369;48.030;11.598;2024-03-25T00:16:37;4.30;99.90
16513;DHT22;8369;48.030;11.598;2024-03-25T00:19:03;4.30;99.90
16513;DHT22;8369;48.030;11.598;2024-03-25T00:21:29;4.30;99.90
16513;DHT22;8369;48.030;11.598;2024-03-25T00:23:55;4.30;99.90
16513;DHT22;8369;48.030;11.598;2024-03-25T00:26:24;4.30;99.90
16513;DHT22;8369;48.030;11.598;2024-03-25T00:28:49;4.40;99.90
16513;DHT22;8369;48.030;11.598;2024-03-25T00:31:15;4.40;99.90
16513;DHT22;8369;48.030;11.598;2024-03-25T00:33:40;4.30;99.90
16513;DHT22;8369;48.030;11.598;2024-03-25T00:36:06;4.30;99.90
16513;DHT22;8369;48.030;11.598;2024-03-25T00:38:33;4.30;99.90
16513;DHT22;8369;48.030;11.598;2024-03-25T00:40:58;4.30;99.90
16513;DHT22;8369;48.030;11.598;2024-03-25T00:43:24;4.30;99.90
16513;DHT22;8369;48.030;11.598;2024-03-25T00:45:50;4.30;99.90
16513;DHT22;8369;48.030;11.598;2024-03-25T00:48:15;4.30;99.90
16513;DHT22;8369;48.030;11.598;2024-03-25T00:50:41;4.30;99.90
16513;DHT22;8369;48.030;11.598;2024-03-25T00:53:06;4.30;99.90
16513;DHT22;8369;48.030;11.598;2024-03-25T00:55:33;4.30;99.90
16513;DHT22;8369;48.030;11.598;2024-03-25T00:58:00;4.30;99.90
16513;DHT22;8369;48.030;11.598;2024-03-25T01:00:25;4.30;99.90
16513;DHT22;8369;48.030;11.598;2024-03-25T01:02:51;4.30;99.90
16513;DHT22;8369;48.030;11.598;2024-03-25T01:05:17;4.30;99.90
16513;DHT22;8369;48.030;11.598;2024-03-25T01:07:43;4.30;99.90
16513;DHT22;8369;48.030;11.598;2024-03-25T01:10:09;4.20;99.90
16513;DHT22;8369;48.030;11.598;2024-03-25T01:12:35;4.20;99.90
16513;DHT22;8369;48.030;11.598;2024-03-25T01:15:00;4.20;99.90
16513;DHT22;8369;48.030;11.598;2024-03-25T01:17:29;4.20;99.90
16513;DHT22;8369;48.030;11.598;2024-03-25T01:19:55;4.20;99.90
16513;DHT22;8369;48.030;11.598;2024-03-25T01:22:20;4.20;99.90
16513;DHT22;8369;48.030;11.598;2024-03-25T01:24:46;4.20;99.90
16513;DHT22;8369;48.030;11.598;2024-03-25T01:27:12;4.10;99.90
16513;DHT22;8369;48.030;11.598;2024-03-25T01:29:37;4.10;99.90
16513;DHT22;8369;48.030;11.598;2024-03-25T01:32:03;4.10;99.90
16513;DHT22;8369;48.030;11.598;2024-03-25T01:34:30;4.10;99.90
16513;DHT22;8369;48.030;11.598;2024-03-25T01:36:56;4.10;99.90
16513;DHT22;8369;48.030;11.598;2024-03-25T01:39:22;4.10;99.90
16513;DHT22;8369;48.030;11.598;2024-03-25T01:41:50;4.00;99.90
16513;DHT22;8369;48.030;11.598;2024-03-25T01:44:16;4.00;99.90
16513;DHT22;8369;48.030;11.598;2024-03-25T01:46:42;4.00;99.90
16513;DHT22;8369;48.030;11.598;2024-03-25T01:49:08;4.10;99.90
16513;DHT22;8369;48.030;11.598;2024-03-25T01:51:35;4.10;99.90
16513;DHT22;8369;48.030;11.598;2024-03-25T01:54:02;4.10;99.90
16513;DHT22;8369;48.030;11.598;2024-03-25T01:56:31;4.10;99.90
16513;DHT22;8369;48.030;11.598;2024-03-25T01:58:58;4.10;99.90
16513;DHT22;8369;48.030;11.598;2024-03-25T02:01:24;4.00;99.90
16513;DHT22;8369;48.030;11.598;2024-03-25T02:03:50;4.00;99.90
16513;DHT22;8369;48.030;11.598;2024-03-25T02:06:17;4.00;99.90
16513;DHT22;8369;48.030;11.598;2024-03-25T02:08:44;4.00;99.90
16513;DHT22;8369;48.030;11.598;2024-03-25T02:11:10;4.00;99.90
16513;DHT22;8369;48.030;11.598;2024-03-25T02:13:39;4.00;99.90
16513;DHT22;8369;48.030;11.598;2024-03-25T02:16:05;4.00;99.90
16513;DHT22;8369;48.030;11.598;2024-03-25T02:18:31;4.00;99.90
16513;DHT22;8369;48.030;11.598;2024-03-25T02:20:58;3.90;99.90
16513;DHT22;8369;48.030;11.598;2024-03-25T02:23:24;3.90;99.90
16513;DHT22;8369;48.030;11.598;2024-03-25T02:25:50;3.90;99.90
16513;DHT22;8369;48.030;11.598;2024-03-25T02:28:17;4.00;99.90
16513;DHT22;8369;48.030;11.598;2024-03-25T02:30:42;4.00;99.90
16513;DHT22;8369;48.030;11.598;2024-03-25T02:33:08;4.00;99.90
16513;DHT22;8369;48.030;11.598;2024-03-25T02:35:34;4.00;99.90
16513;DHT22;8369;48.030;11.598;2024-03-25T02:38:01;4.00;99.90
16513;DHT22;8369;48.030;11.598;2024-03-25T02:40:29;4.00;99.90
16513;DHT22;8369;48.030;11.598;2024-03-25T02:42:55;4.00;99.90
16513;DHT22;8369;48.030;11.598;2024-03-25T02:45:21;4.00;99.90
16513;DHT22;8369;48.030;11.598;2024-03-25T02:47:47;4.00;99.90
16513;DHT22;8369;48.030;11.598;2024-03-25T02:50:13;4.00;99.90
16513;DHT22;8369;48.030;11.598;2024-03-25T02:52:38;4.00;99.90
16513;DHT22;8369;48.030;11.598;2024-03-25T02:55:04;4.00;99.90
16513;DHT22;8369;48.030;11.598;2024-03-25T02:57:30;4.00;99.90
16513;DHT22;8369;48.030;11.598;2024-03-25T02:59:56;4.00;99.90
16513;DHT22;8369;48.030;11.598;2024-03-25T03:02:21;4.00;99.90
16513;DHT22;8369;48.030;11.598;2024-03-25T03:04:47;4.00;99.90
16513;DHT22;8369;48.030;11.598;2024-03-25T03:07:13;4.10;99.90
16513;DHT22;8369;48.030;11.598;2024-03-25T03:09:38;4.00;99.90
16513;DHT22;8369;48.030;11.598;2024-03-25T03:12:05;4.10;99.90
16513;DHT22;8369;48.030;11.598;2024-03-25T03:14:30;4.10;99.90
16513;DHT22;8369;48.030;11.598;2024-03-25T03:16:56;4.10;99.90
16513;DHT22;8369;48.030;11.598;2024-03-25T03:19:26;4.10;99.90
16513;DHT22;8369;48.030;11.598;2024-03-25T03:21:53;4.10;99.90
16513;DHT22;8369;48.030;11.598;2024-03-25T03:24:19;4.10;99.90
16513;DHT22;8369;48.030;11.598;2024-03-25T03:26:51;4.10;99.90
16513;DHT22;8369;48.030;11.598;2024-03-25T03:29:16;4.10;99.90
16513;DHT22;8369;48.030;11.598;2024-03-25T03:31:44;4.20;99.90
16513;DHT22;8369;48.030;11.598;2024-03-25T03:34:09;4.20;99.90
16513;DHT22;8369;48.030;11.598;2024-03-25T03:36:35;4.10;99.90
16513;DHT22;8369;48.030;11.598;2024-03-25T03:39:01;4.10;99.90
16513;DHT22;8369;48.030;11.598;2024-03-25T03:41:26;4.10;99.90
16513;DHT22;8369;48.030;11.598;2024-03-25T03:43:52;4.00;99.90
16513;DHT22;8369;48.030;11.598;2024-03-25T03:46:18;4.00;99.90
16513;DHT22;8369;48.030;11.598;2024-03-25T03:48:44;4.00;99.90
16513;DHT22;8369;48.030;11.598;2024-03-25T03:51:09;4.00;99.90
16513;DHT22;8369;48.030;11.598;2024-03-25T03:53:35;4.00;99.90
16513;DHT22;8369;48.030;11.598;2024-03-25T03:56:02;3.90;99.90
16513;DHT22;8369;48.030;11.598;2024-03-25T03:58:29;3.90;99.90
16513;DHT22;8369;48.030;11.598;2024-03-25T04:00:55;3.80;99.90
16513;DHT22;8369;48.030;11.598;2024-03-25T04:03:21;3.70;99.90
16513;DHT22;8369;48.030;11.598;2024-03-25T04:05:47;3.70;99.90
16513;DHT22;8369;48.030;11.598;2024-03-25T04:08:12;3.70;99.90
16513;DHT22;8369;48.030;11.598;2024-03-25T04:10:38;3.70;99.90
16513;DHT22;8369;48.030;11.598;2024-03-25T04:13:06;3.70;99.90
16513;DHT22;8369;48.030;11.598;2024-03-25T04:15:34;3.80;99.90
16513;DHT22;8369;48.030;11.598;2024-03-25T04:18:00;3.80;99.90
16513;DHT22;8369;48.030;11.598;2024-03-25T04:20:27;3.80;99.90
16513;DHT22;8369;48.030;11.598;2024-03-25T04:22:56;3.70;99.90
16513;DHT22;8369;48.030;11.598;2024-03-25T04:25:22;3.70;99.90
16513;DHT22;8369;48.030;11.598;2024-03-25T04:27:48;3.70;99.90
16513;DHT22;8369;48.030;11.598;2024-03-25T04:30:14;3.70;99.90
16513;DHT22;8369;48.030;11.598;2024-03-25T04:32:40;3.70;99.90
16513;DHT22;8369;48.030;11.598;2024-03-25T04:35:06;3.60;99.90
16513;DHT22;8369;48.030;11.598;2024-03-25T04:37:33;3.70;99.90
16513;DHT22;8369;48.030;11.598;2024-03-25T04:39:59;3.70;99.90
16513;DHT22;8369;48.030;11.598;2024-03-25T04:42:25;3.60;99.90
16513;DHT22;8369;48.030;11.598;2024-03-25T04:44:51;3.60;99.90
16513;DHT22;8369;48.030;11.598;2024-03-25T04:47:17;3.60;99.90
16513;DHT22;8369;48.030;11.598;2024-03-25T04:49:43;3.50;99.90
16513;DHT22;8369;48.030;11.598;2024-03-25T04:52:10;3.60;99.90
16513;DHT22;8369;48.030;11.598;2024-03-25T04:54:36;3.70;99.90
16513;DHT22;8369;48.030;11.598;2024-03-25T04:57:02;3.70;99.90
16513;DHT22;8369;48.030;11.598;2024-03-25T04:59:28;3.60;99.90
16513;DHT22;8369;48.030;11.598;2024-03-25T05:01:53;3.70;99.90
16513;DHT22;8369;48.030;11.598;2024-03-25T05:04:20;3.60;99.90
16513;DHT22;8369;48.030;11.598;2024-03-25T05:06:46;3.60;99.90
16513;DHT22;8369;48.030;11.598;2024-03-25T05:09:11;3.60;99.90
16513;DHT22;8369;48.030;11.598;2024-03-25T05:11:37;3.60;99.90
16513;DHT22;8369;48.030;11.598;2024-03-25T05:14:02;3.60;99.90
16513;DHT22;8369;48.030;11.598;2024-03-25T05:16:28;3.60;99.90
16513;DHT22;8369;48.030;11.598;2024-03-25T05:18:54;3.60;99.90
16513;DHT22;8369;48.030;11.598;2024-03-25T05:21:20;3.50;99.90
16513;DHT22;8369;48.030;11.598;2024-03-25T05:23:45;3.60;99.90
16513;DHT22;8369;48.030;11.598;2024-03-25T05:26:11;3.50;99.90
16513;DHT22;8369;48.030;11.598;2024-03-25T05:28:36;3.50;99.90
16513;DHT22;8369;48.030;11.598;2024-03-25T05:31:09;3.50;99.90
16513;DHT22;8369;48.030;11.598;2024-03-25T05:33:35;3.50;99.90
16513;DHT22;8369;48.030;11.598;2024-03-25T05:36:01;3.50;99.90
16513;DHT22;8369;48.030;11.598;2024-03-25T05:38:28;3.50;99.90
16513;DHT22;8369;48.030;11.598;2024-03-25T05:40:54;3.50;99.90
16513;DHT22;8369;48.030;11.598;2024-03-25T05:43:20;3.50;99.90
16513;DHT22;8369;48.030;11.598;2024-03-25T05:45:55;3.50;99.90
16513;DHT22;8369;48.030;11.598;2024-03-25T05:48:21;3.50;99.90
16513;DHT22;8369;48.030;11.598;2024-03-25T05:53:22;3.50;99.90
16513;DHT22;8369;48.030;11.598;2024-03-25T05:55:49;3.60;99.90
16513;DHT22;8369;48.030;11.598;2024-03-25T05:58:15;3.70;99.90
16513;DHT22;8369;48.030;11.598;2024-03-25T06:00:41;4.00;99.90
16513;DHT22;8369;48.030;11.598;2024-03-25T06:03:07;4.30;99.90
16513;DHT22;8369;48.030;11.598;2024-03-25T06:05:32;4.70;99.90
16513;DHT22;8369;48.030;11.598;2024-03-25T06:07:58;5.10;99.90
16513;DHT22;8369;48.030;11.598;2024-03-25T06:10:24;5.40;99.90
16513;DHT22;8369;48.030;11.598;2024-03-25T06:12:49;5.50;99.90
16513;DHT22;8369;48.030;11.598;2024-03-25T06:15:15;5.60;99.90
16513;DHT22;8369;48.030;11.598;2024-03-25T06:17:41;5.70;99.90
16513;DHT22;8369;48.030;11.598;2024-03-25T06:20:07;5.80;99.90
16513;DHT22;8369;48.030;11.598;2024-03-25T06:22:33;5.80;99.90
16513;DHT22;8369;48.030;11.598;2024-03-25T06:24:59;5.80;99.90
16513;DHT22;8369;48.030;11.598;2024-03-25T06:27:25;5.80;99.90
16513;DHT22;8369;48.030;11.598;2024-03-25T06:29:50;5.80;99.90
16513;DHT22;8369;48.030;11.598;2024-03-25T06:32:36;5.70;99.90
16513;DHT22;8369;48.030;11.598;2024-03-25T06:35:24;5.70;99.90
16513;DHT22;8369;48.030;11.598;2024-03-25T06:37:50;5.60;99.90
16513;DHT22;8369;48.030;11.598;2024-03-25T06:40:16;5.50;99.90
16513;DHT22;8369;48.030;11.598;2024-03-25T06:42:42;5.50;99.90
16513;DHT22;8369;48.030;11.598;2024-03-25T06:45:08;5.50;99.90
16513;DHT22;8369;48.030;11.598;2024-03-25T06:47:33;5.50;99.90
16513;DHT22;8369;48.030;11.598;2024-03-25T06:49:59;5.50;99.90
16513;DHT22;8369;48.030;11.598;2024-03-25T06:52:25;5.50;99.90
16513;DHT22;8369;48.030;11.598;2024-03-25T06:54:50;5.50;99.90
16513;DHT22;8369;48.030;11.598;2024-03-25T06:57:16;5.50;99.90
16513;DHT22;8369;48.030;11.598;2024-03-25T06:59:42;5.40;99.90
16513;DHT22;8369;48.030;11.598;2024-03-25T07:02:07;5.40;99.90
16513;DHT22;8369;48.030;11.598;2024-03-25T07:04:33;5.50;99.90
16513;DHT22;8369;48.030;11.598;2024-03-25T07:06:59;5.50;99.90
16513;DHT22;8369;48.030;11.598;2024-03-25T07:09:24;5.50;99.90
16513;DHT22;8369;48.030;11.598;2024-03-25T07:11:50;5.60;99.90
16513;DHT22;8369;48.030;11.598;2024-03-25T07:14:16;5.60;99.90
16513;DHT22;8369;48.030;11.598;2024-03-25T07:16:45;5.70;99.90
16513;DHT22;8369;48.030;11.598;2024-03-25T07:19:12;5.80;99.90
16513;DHT22;8369;48.030;11.598;2024-03-25T07:21:38;5.80;99.90
16513;DHT22;8369;48.030;11.598;2024-03-25T07:24:03;5.80;99.90
16513;DHT22;8369;48.030;11.598;2024-03-25T07:26:29;6.00;99.90
16513;DHT22;8369;48.030;11.598;2024-03-25T07:28:55;6.00;99.90
16513;DHT22;8369;48.030;11.598;2024-03-25T07:31:21;6.10;99.90
16513;DHT22;8369;48.030;11.598;2024-03-25T07:33:46;6.20;99.90
16513;DHT22;8369;48.030;11.598;2024-03-25T07:36:12;6.20;99.90
16513;DHT22;8369;48.030;11.598;2024-03-25T07:38:38;6.30;99.90
16513;DHT22;8369;48.030;11.598;2024-03-25T07:41:06;6.40;99.90
16513;DHT22;8369;48.030;11.598;2024-03-25T07:43:32;6.40;99.90
16513;DHT22;8369;48.030;11.598;2024-03-25T07:45:58;6.40;99.90
16513;DHT22;8369;48.030;11.598;2024-03-25T07:48:23;6.40;99.90
16513;DHT22;8369;48.030;11.598;2024-03-25T07:50:49;6.50;99.90
16513;DHT22;8369;48.030;11.598;2024-03-25T07:53:14;6.60;99.90
16513;DHT22;8369;48.030;11.598;2024-03-25T07:55:40;6.60;99.90
16513;DHT22;8369;48.030;11.598;2024-03-25T07:58:06;6.60;99.90
16513;DHT22;8369;48.030;11.598;2024-03-25T08:00:31;6.60;99.90
16513;DHT22;8369;48.030;11.598;2024-03-25T08:02:57;6.90;99.90
16513;DHT22;8369;48.030;11.598;2024-03-25T08:05:23;7.00;99.90
16513;DHT22;8369;48.030;11.598;2024-03-25T08:07:48;7.10;99.90
16513;DHT22;8369;48.030;11.598;2024-03-25T08:10:14;7.00;99.90
16513;DHT22;8369;48.030;11.598;2024-03-25T08:12:39;7.00;99.90
16513;DHT22;8369;48.030;11.598;2024-03-25T08:15:05;7.10;99.90
16513;DHT22;8369;48.030;11.598;2024-03-25T08:17:31;7.20;99.90
16513;DHT22;8369;48.030;11.598;2024-03-25T08:19:57;7.30;99.90
16513;DHT22;8369;48.030;11.598;2024-03-25T08:22:23;7.40;99.90
16513;DHT22;8369;48.030;11.598;2024-03-25T08:24:49;7.40;99.70
16513;DHT22;8369;48.030;11.598;2024-03-25T08:27:14;7.40;99.90
16513;DHT22;8369;48.030;11.598;2024-03-25T08:29:40;7.50;99.90
16513;DHT22;8369;48.030;11.598;2024-03-25T08:32:06;7.60;99.90
16513;DHT22;8369;48.030;11.598;2024-03-25T08:34:32;7.60;99.90
16513;DHT22;8369;48.030;11.598;2024-03-25T08:36:57;7.70;99.90
16513;DHT22;8369;48.030;11.598;2024-03-25T08:39:25;7.90;98.50
16513;DHT22;8369;48.030;11.598;2024-03-25T08:41:50;7.80;99.40
16513;DHT22;8369;48.030;11.598;2024-03-25T08:44:16;7.90;99.90
16513;DHT22;8369;48.030;11.598;2024-03-25T08:46:45;8.00;99.90
16513;DHT22;8369;48.030;11.598;2024-03-25T08:49:10;8.00;99.20
16513;DHT22;8369;48.030;11.598;2024-03-25T08:51:36;8.10;99.50
16513;DHT22;8369;48.030;11.598;2024-03-25T08:54:02;8.20;99.70
16513;DHT22;8369;48.030;11.598;2024-03-25T08:56:28;8.20;97.50
16513;DHT22;8369;48.030;11.598;2024-03-25T08:58:54;8.30;94.50
16513;DHT22;8369;48.030;11.598;2024-03-25T09:01:21;8.30;95.10
16513;DHT22;8369;48.030;11.598;2024-03-25T09:03:50;8.30;94.70
16513;DHT22;8369;48.030;11.598;2024-03-25T09:06:15;8.30;92.90
16513;DHT22;8369;48.030;11.598;2024-03-25T09:08:42;8.30;93.50
16513;DHT22;8369;48.030;11.598;2024-03-25T09:11:26;8.30;92.00
16513;DHT22;8369;48.030;11.598;2024-03-25T09:13:52;8.20;92.40
16513;DHT22;8369;48.030;11.598;2024-03-25T09:16:18;8.20;90.30
16513;DHT22;8369;48.030;11.598;2024-03-25T09:18:44;8.20;91.50
16513;DHT22;8369;48.030;11.598;2024-03-25T09:21:11;8.30;88.90
16513;DHT22;8369;48.030;11.598;2024-03-25T09:23:37;8.30;89.80
16513;DHT22;8369;48.030;11.598;2024-03-25T09:26:02;8.40;90.30
16513;DHT22;8369;48.030;11.598;2024-03-25T09:28:29;8.40;85.00
16513;DHT22;8369;48.030;11.598;2024-03-25T09:30:54;8.50;86.00
16513;DHT22;8369;48.030;11.598;2024-03-25T09:33:20;8.60;80.50
16513;DHT22;8369;48.030;11.598;2024-03-25T09:35:47;8.70;81.30
16513;DHT22;8369;48.030;11.598;2024-03-25T09:38:13;8.70;85.10
16513;DHT22;8369;48.030;11.598;2024-03-25T09:40:42;8.70;86.20
16513;DHT22;8369;48.030;11.598;2024-03-25T09:43:21;8.80;87.10
16513;DHT22;8369;48.030;11.598;2024-03-25T09:45:49;9.00;82.70
16513;DHT22;8369;48.030;11.598;2024-03-25T09:48:18;9.10;78.80
16513;DHT22;8369;48.030;11.598;2024-03-25T09:50:45;9.30;77.40
16513;DHT22;8369;48.030;11.598;2024-03-25T09:53:12;9.30;79.30
16513;DHT22;8369;48.030;11.598;2024-03-25T09:55:38;9.50;78.20
16513;DHT22;8369;48.030;11.598;2024-03-25T09:58:04;9.50;75.20
16513;DHT22;8369;48.030;11.598;2024-03-25T10:00:30;9.60;76.40
16513;DHT22;8369;48.030;11.598;2024-03-25T10:02:56;9.60;74.30
16513;DHT22;8369;48.030;11.598;2024-03-25T10:05:22;9.60;73.80
16513;DHT22;8369;48.030;11.598;2024-03-25T10:07:48;9.60;76.80
16513;DHT22;8369;48.030;11.598;2024-03-25T10:10:13;9.70;76.70
16513;DHT22;8369;48.030;11.598;2024-03-25T10:12:44;9.70;71.50
16513;DHT22;8369;48.030;11.598;2024-03-25T10:15:15;9.80;77.10
16513;DHT22;8369;48.030;11.598;2024-03-25T10:17:42;9.90;76.20
16513;DHT22;8369;48.030;11.598;2024-03-25T10:20:13;10.00;76.50
16513;DHT22;8369;48.030;11.598;2024-03-25T10:22:45;10.00;73.00
16513;DHT22;8369;48.030;11.598;2024-03-25T10:28:39;9.90;69.50
16513;DHT22;8369;48.030;11.598;2024-03-25T10:31:05;9.90;68.60
16513;DHT22;8369;48.030;11.598;2024-03-25T10:33:31;10.00;70.70
16513;DHT22;8369;48.030;11.598;2024-03-25T10:35:58;10.00;71.80
16513;DHT22;8369;48.030;11.598;2024-03-25T10:38:28;10.00;72.70
16513;DHT22;8369;48.030;11.598;2024-03-25T10:40:57;10.10;68.50
16513;DHT22;8369;48.030;11.598;2024-03-25T10:43:24;10.10;70.30
16513;DHT22;8369;48.030;11.598;2024-03-25T10:45:55;10.10;68.00
16513;DHT22;8369;48.030;11.598;2024-03-25T10:48:32;10.20;67.70
16513;DHT22;8369;48.030;11.598;2024-03-25T10:51:01;10.30;65.00
16513;DHT22;8369;48.030;11.598;2024-03-25T10:53:29;10.40;66.30
16513;DHT22;8369;48.030;11.598;2024-03-25T10:55:56;10.40;67.90
16513;DHT22;8369;48.030;11.598;2024-03-25T10:58:23;10.40;68.80
16513;DHT22;8369;48.030;11.598;2024-03-25T11:00:50;10.40;69.10
16513;DHT22;8369;48.030;11.598;2024-03-25T11:03:17;10.20;65.40
16513;DHT22;8369;48.030;11.598;2024-03-25T11:05:44;10.10;69.70
16513;DHT22;8369;48.030;11.598;2024-03-25T11:08:14;10.10;69.50
16513;DHT22;8369;48.030;11.598;2024-03-25T11:10:47;10.10;68.60
16513;DHT22;8369;48.030;11.598;2024-03-25T11:13:14;10.00;67.10
16513;DHT22;8369;48.030;11.598;2024-03-25T11:15:43;10.00;69.20
16513;DHT22;8369;48.030;11.598;2024-03-25T11:18:16;10.10;69.70
16513;DHT22;8369;48.030;11.598;2024-03-25T11:20:43;10.20;68.50
16513;DHT22;8369;48.030;11.598;2024-03-25T11:23:10;10.10;65.10
16513;DHT22;8369;48.030;11.598;2024-03-25T11:25:38;10.10;67.40
16513;DHT22;8369;48.030;11.598;2024-03-25T11:28:04;10.10;68.20
16513;DHT22;8369;48.030;11.598;2024-03-25T11:30:32;10.20;67.90
16513;DHT22;8369;48.030;11.598;2024-03-25T11:33:01;10.30;66.50
16513;DHT22;8369;48.030;11.598;2024-03-25T11:35:28;10.30;66.00
16513;DHT22;8369;48.030;11.598;2024-03-25T11:37:53;10.30;65.30
16513;DHT22;8369;48.030;11.598;2024-03-25T11:40:20;10.40;67.10
16513;DHT22;8369;48.030;11.598;2024-03-25T11:42:46;10.50;65.40
16513;DHT22;8369;48.030;11.598;2024-03-25T11:45:16;10.50;63.90
16513;DHT22;8369;48.030;11.598;2024-03-25T11:47:45;10.60;64.50
16513;DHT22;8369;48.030;11.598;2024-03-25T11:50:13;10.70;68.60
16513;DHT22;8369;48.030;11.598;2024-03-25T11:52:39;10.70;66.90
16513;DHT22;8369;48.030;11.598;2024-03-25T11:55:06;10.80;68.00
16513;DHT22;8369;48.030;11.598;2024-03-25T11:57:35;11.00;67.20
16513;DHT22;8369;48.030;11.598;2024-03-25T12:00:02;11.00;65.30
16513;DHT22;8369;48.030;11.598;2024-03-25T12:02:32;11.10;67.60
16513;DHT22;8369;48.030;11.598;2024-03-25T12:04:58;11.20;69.10
16513;DHT22;8369;48.030;11.598;2024-03-25T12:07:25;11.40;68.90
16513;DHT22;8369;48.030;11.598;2024-03-25T12:09:50;11.40;65.00
16513;DHT22;8369;48.030;11.598;2024-03-25T12:12:35;11.50;65.10
16513;DHT22;8369;48.030;11.598;2024-03-25T12:15:01;11.60;65.00
16513;DHT22;8369;48.030;11.598;2024-03-25T12:17:30;11.60;65.40
16513;DHT22;8369;48.030;11.598;2024-03-25T12:20:02;11.60;62.50
16513;DHT22;8369;48.030;11.598;2024-03-25T12:22:32;11.70;63.90
16513;DHT22;8369;48.030;11.598;2024-03-25T12:25:02;11.70;64.20
16513;DHT22;8369;48.030;11.598;2024-03-25T12:27:36;11.70;60.20
16513;DHT22;8369;48.030;11.598;2024-03-25T12:30:05;11.80;57.90
16513;DHT22;8369;48.030;11.598;2024-03-25T12:35:14;11.60;57.00
16513;DHT22;8369;48.030;11.598;2024-03-25T12:37:43;11.50;55.50
16513;DHT22;8369;48.030;11.598;2024-03-25T12:40:11;11.50;58.40
16513;DHT22;8369;48.030;11.598;2024-03-25T12:42:37;11.50;59.20
16513;DHT22;8369;48.030;11.598;2024-03-25T12:45:06;11.50;61.00
16513;DHT22;8369;48.030;11.598;2024-03-25T12:47:32;11.50;60.90
16513;DHT22;8369;48.030;11.598;2024-03-25T12:49:58;11.60;60.70
16513;DHT22;8369;48.030;11.598;2024-03-25T12:52:25;11.60;61.00
16513;DHT22;8369;48.030;11.598;2024-03-25T12:54:51;11.60;61.00
16513;DHT22;8369;48.030;11.598;2024-03-25T12:57:17;11.70;62.40
16513;DHT22;8369;48.030;11.598;2024-03-25T12:59:44;11.70;61.00
16513;DHT22;8369;48.030;11.598;2024-03-25T13:02:12;11.70;59.20
16513;DHT22;8369;48.030;11.598;2024-03-25T13:04:40;11.60;57.50
16513;DHT22;8369;48.030;11.598;2024-03-25T13:07:09;11.60;59.50
16513;DHT22;8369;48.030;11.598;2024-03-25T13:09:37;11.60;61.30
16513;DHT22;8369;48.030;11.598;2024-03-25T13:12:03;11.70;61.20
16513;DHT22;8369;48.030;11.598;2024-03-25T13:14:30;11.70;61.00
16513;DHT22;8369;48.030;11.598;2024-03-25T13:16:56;11.70;60.50
16513;DHT22;8369;48.030;11.598;2024-03-25T13:19:21;11.60;58.20
16513;DHT22;8369;48.030;11.598;2024-03-25T13:21:48;11.60;56.40
16513;DHT22;8369;48.030;11.598;2024-03-25T13:24:14;11.50;57.00
16513;DHT22;8369;48.030;11.598;2024-03-25T13:26:40;11.40;58.20
16513;DHT22;8369;48.030;11.598;2024-03-25T13:29:06;11.30;58.20
16513;DHT22;8369;48.030;11.598;2024-03-25T13:31:33;11.30;59.70
16513;DHT22;8369;48.030;11.598;2024-03-25T13:33:59;11.30;60.10
16513;DHT22;8369;48.030;11.598;2024-03-25T13:36:25;11.30;60.70
16513;DHT22;8369;48.030;11.598;2024-03-25T13:38:51;11.30;59.10
16513;DHT22;8369;48.030;11.598;2024-03-25T13:41:17;11.20;57.80
16513;DHT22;8369;48.030;11.598;2024-03-25T13:43:48;11.20;57.80
16513;DHT22;8369;48.030;11.598;2024-03-25T13:46:14;11.20;58.70
16513;DHT22;8369;48.030;11.598;2024-03-25T13:48:40;11.10;58.80
16513;DHT22;8369;48.030;11.598;2024-03-25T13:51:06;11.10;57.50
16513;DHT22;8369;48.030;11.598;2024-03-25T13:53:33;11.10;59.40
16513;DHT22;8369;48.030;11.598;2024-03-25T13:55:59;11.10;58.40
16513;DHT22;8369;48.030;11.598;2024-03-25T13:58:26;11.10;58.80
16513;DHT22;8369;48.030;11.598;2024-03-25T14:00:52;11.10;61.20
16513;DHT22;8369;48.030;11.598;2024-03-25T14:03:18;11.10;61.30
16513;DHT22;8369;48.030;11.598;2024-03-25T14:05:44;11.10;58.90
16513;DHT22;8369;48.030;11.598;2024-03-25T14:08:10;11.10;59.70
16513;DHT22;8369;48.030;11.598;2024-03-25T14:10:36;11.10;60.20
16513;DHT22;8369;48.030;11.598;2024-03-25T14:13:02;11.10;60.40
16513;DHT22;8369;48.030;11.598;2024-03-25T14:15:29;11.10;58.70
16513;DHT22;8369;48.030;11.598;2024-03-25T14:17:55;11.00;57.90
16513;DHT22;8369;48.030;11.598;2024-03-25T14:20:22;11.10;59.90
16513;DHT22;8369;48.030;11.598;2024-03-25T14:22:48;11.10;60.50
16513;DHT22;8369;48.030;11.598;2024-03-25T14:25:14;11.10;58.20
16513;DHT22;8369;48.030;11.598;2024-03-25T14:27:41;11.10;58.70
16513;DHT22;8369;48.030;11.598;2024-03-25T14:30:07;11.10;60.50
16513;DHT22;8369;48.030;11.598;2024-03-25T14:32:36;11.10;61.60
16513;DHT22;8369;48.030;11.598;2024-03-25T14:35:04;11.20;62.70
16513;DHT22;8369;48.030;11.598;2024-03-25T14:37:32;11.20;61.80
16513;DHT22;8369;48.030;11.598;2024-03-25T14:39:58;11.20;62.20
16513;DHT22;8369;48.030;11.598;2024-03-25T14:42:24;11.20;63.00
16513;DHT22;8369;48.030;11.598;2024-03-25T14:44:50;11.30;63.00
16513;DHT22;8369;48.030;11.598;2024-03-25T14:47:16;11.30;61.30
16513;DHT22;8369;48.030;11.598;2024-03-25T14:49:42;11.20;59.90
16513;DHT22;8369;48.030;11.598;2024-03-25T14:52:08;11.20;59.90
16513;DHT22;8369;48.030;11.598;2024-03-25T14:54:34;11.20;60.50
16513;DHT22;8369;48.030;11.598;2024-03-25T14:57:00;11.10;60.50
16513;DHT22;8369;48.030;11.598;2024-03-25T14:59:27;11.10;61.30
16513;DHT22;8369;48.030;11.598;2024-03-25T15:01:54;11.10;61.90
16513;DHT22;8369;48.030;11.598;2024-03-25T15:04:20;11.00;61.50
16513;DHT22;8369;48.030;11.598;2024-03-25T15:06:46;11.00;62.20
16513;DHT22;8369;48.030;11.598;2024-03-25T15:09:12;11.00;62.70
16513;DHT22;8369;48.030;11.598;2024-03-25T15:11:39;10.90;63.70
16513;DHT22;8369;48.030;11.598;2024-03-25T15:14:05;10.90;62.80
16513;DHT22;8369;48.030;11.598;2024-03-25T15:16:31;10.90;63.30
16513;DHT22;8369;48.030;11.598;2024-03-25T15:18:57;10.80;63.40
16513;DHT22;8369;48.030;11.598;2024-03-25T15:21:22;10.80;63.30
16513;DHT22;8369;48.030;11.598;2024-03-25T15:23:48;10.70;62.10
16513;DHT22;8369;48.030;11.598;2024-03-25T15:26:14;10.70;64.40
16513;DHT22;8369;48.030;11.598;2024-03-25T15:28:40;10.70;65.30
16513;DHT22;8369;48.030;11.598;2024-03-25T15:31:06;10.70;66.20
16513;DHT22;8369;48.030;11.598;2024-03-25T15:33:32;10.70;65.70
16513;DHT22;8369;48.030;11.598;2024-03-25T15:36:00;10.70;64.70
16513;DHT22;8369;48.030;11.598;2024-03-25T15:38:27;10.70;64.80
16513;DHT22;8369;48.030;11.598;2024-03-25T15:40:53;10.60;64.70
16513;DHT22;8369;48.030;11.598;2024-03-25T15:43:19;10.60;65.00
16513;DHT22;8369;48.030;11.598;2024-03-25T15:45:59;10.50;64.70